Airport Name : Luxembourg

Other Name : Luxembourg

ICAO : ELLX

IATA : LUX

FAA :

Latitude : 49.626575

Longitude : 6.211517

Country : Luxembourg

Local Date and Time : 07 Jun 2023 01:16

 

TAF (Terminal Aerodrome Forecast)

 

METAR (METeorological Aerodrome Report)

ELLX 062250Z AUTO 05010KT 9999 NCD 15/07 Q1019 NOSIG

ELLX 062220Z 04010KT CAVOK 16/07 Q1019 NOSIG

ELLX 062150Z 05010KT CAVOK 16/08 Q1019 NOSIG

ELLX 062120Z 04011KT CAVOK 18/08 Q1018 NOSIG

ELLX 062050Z 04012KT CAVOK 19/08 Q1018 NOSIG

ELLX 062020Z 03008KT CAVOK 20/08 Q1018 NOSIG

ELLX 061950Z 03009KT CAVOK 20/08 Q1018 NOSIG

ELLX 061920Z 01008KT CAVOK 21/08 Q1017 NOSIG